createdAt,value
2023-03-22T00:01:32.527Z,3.07
2023-03-22T00:04:00.906Z,2.30
2023-03-22T00:06:29.006Z,2.33
2023-03-22T00:08:57.113Z,2.23
2023-03-22T00:11:25.924Z,2.70
2023-03-22T00:13:55.145Z,2.50
2023-03-22T00:16:23.926Z,1.70
2023-03-22T00:18:53.581Z,2.87
2023-03-22T00:21:21.967Z,2.20
2023-03-22T00:23:50.895Z,2.40
2023-03-22T00:26:19.255Z,3.00
2023-03-22T00:28:47.777Z,3.77
2023-03-22T00:31:15.992Z,3.27
2023-03-22T00:33:44.306Z,3.20
2023-03-22T00:36:14.359Z,3.10
2023-03-22T00:38:44.286Z,3.00
2023-03-22T00:41:16.135Z,2.93
2023-03-22T00:43:46.253Z,2.77
2023-03-22T00:46:15.100Z,2.23
2023-03-22T00:48:43.640Z,1.60
2023-03-22T00:51:13.906Z,2.10
2023-03-22T00:53:43.421Z,1.83
2023-03-22T00:56:15.711Z,2.00
2023-03-22T00:59:04.520Z,2.20
2023-03-22T01:01:32.960Z,2.17
2023-03-22T01:04:01.818Z,2.73
2023-03-22T01:06:31.908Z,2.40
2023-03-22T01:09:00.048Z,2.17
2023-03-22T01:11:28.603Z,2.30
2023-03-22T01:13:57.216Z,2.70
2023-03-22T01:16:26.291Z,2.10
2023-03-22T01:18:54.715Z,2.33
2023-03-22T01:21:24.077Z,2.20
2023-03-22T01:23:53.656Z,1.90
2023-03-22T01:26:21.870Z,2.33
2023-03-22T01:28:50.241Z,2.30
2023-03-22T01:31:18.532Z,2.10
2023-03-22T01:33:46.819Z,2.20
2023-03-22T01:36:15.339Z,2.40
2023-03-22T01:38:43.545Z,2.00
2023-03-22T01:41:13.309Z,2.00
2023-03-22T01:43:43.752Z,2.30
2023-03-22T01:46:12.200Z,2.00
2023-03-22T01:48:46.115Z,2.47
2023-03-22T01:51:20.607Z,2.20
2023-03-22T01:54:31.688Z,2.17
2023-03-22T01:57:03.334Z,2.67
2023-03-22T01:59:39.758Z,2.00
2023-03-22T02:02:25.771Z,2.00
2023-03-22T02:05:04.066Z,2.30
2023-03-22T02:07:32.633Z,2.47
2023-03-22T02:10:03.716Z,2.37
2023-03-22T02:12:55.871Z,2.73
2023-03-22T02:15:47.225Z,2.57
2023-03-22T02:18:51.460Z,2.17
2023-03-22T02:21:44.494Z,2.40
2023-03-22T02:24:46.165Z,2.13
2023-03-22T02:27:25.005Z,2.43
2023-03-22T02:30:04.075Z,2.60
2023-03-22T02:32:55.656Z,2.47
2023-03-22T02:35:46.774Z,2.60
2023-03-22T02:38:48.773Z,2.47
2023-03-22T02:41:26.571Z,2.80
2023-03-22T02:44:05.735Z,2.67
2023-03-22T02:46:42.962Z,2.50
2023-03-22T02:49:19.572Z,2.27
2023-03-22T02:51:53.436Z,2.57
2023-03-22T02:54:29.764Z,2.57
2023-03-22T02:57:03.934Z,2.30
2023-03-22T02:59:34.194Z,2.33
2023-03-22T03:02:04.715Z,3.37
2023-03-22T03:04:37.000Z,2.90
2023-03-22T03:07:09.392Z,2.77
2023-03-22T03:09:42.018Z,2.33
2023-03-22T03:12:16.020Z,2.60
2023-03-22T03:14:44.240Z,1.93
2023-03-22T03:17:24.887Z,2.10
2023-03-22T03:20:07.983Z,2.50
2023-03-22T03:22:46.230Z,2.50
2023-03-22T03:25:24.986Z,2.60
2023-03-22T03:28:01.337Z,2.50
2023-03-22T03:30:35.234Z,2.80
2023-03-22T03:33:09.427Z,2.50
2023-03-22T03:35:42.182Z,2.43
2023-03-22T03:38:17.510Z,2.60
2023-03-22T03:40:49.647Z,2.47
2023-03-22T03:43:18.940Z,2.30
2023-03-22T03:45:47.563Z,2.53
2023-03-22T03:48:20.174Z,2.33
2023-03-22T03:50:50.344Z,3.03
2023-03-22T03:53:18.774Z,2.63
2023-03-22T03:55:48.660Z,2.50
2023-03-22T03:58:17.809Z,2.30
2023-03-22T04:00:48.307Z,2.00
2023-03-22T04:03:46.543Z,2.57
2023-03-22T04:06:34.791Z,2.03
2023-03-22T04:09:09.907Z,2.30
2023-03-22T04:11:44.414Z,2.07
2023-03-22T04:14:13.627Z,2.30
2023-03-22T04:16:41.836Z,2.67
2023-03-22T04:19:13.458Z,2.90
2023-03-22T04:21:41.584Z,3.00
2023-03-22T04:24:11.179Z,2.43
2023-03-22T04:26:44.670Z,3.33
2023-03-22T04:29:20.169Z,2.43
2023-03-22T04:31:53.154Z,2.97
2023-03-22T04:34:28.561Z,2.63
2023-03-22T04:37:02.643Z,3.13
2023-03-22T04:39:36.601Z,2.77
2023-03-22T04:42:32.547Z,2.60
2023-03-22T04:45:09.896Z,2.63
2023-03-22T04:47:38.969Z,2.93
2023-03-22T04:50:10.024Z,2.33
2023-03-22T04:52:48.075Z,2.57
2023-03-22T04:55:16.716Z,2.17
2023-03-22T04:57:47.558Z,2.13
2023-03-22T05:00:17.209Z,2.60
2023-03-22T05:02:45.462Z,3.27
2023-03-22T05:05:29.247Z,2.67
2023-03-22T05:07:57.498Z,2.90
2023-03-22T05:10:26.510Z,2.60
2023-03-22T05:12:56.875Z,2.47
2023-03-22T05:15:29.036Z,2.60
2023-03-22T05:17:57.324Z,2.60
2023-03-22T05:20:25.907Z,2.67
2023-03-22T05:23:14.424Z,3.00
2023-03-22T05:25:46.984Z,2.57
2023-03-22T05:28:21.428Z,2.40
2023-03-22T05:31:17.882Z,2.17
2023-03-22T05:33:54.104Z,3.20
2023-03-22T05:36:24.941Z,2.97
2023-03-22T05:39:22.936Z,2.07
2023-03-22T05:41:52.433Z,2.37
2023-03-22T05:44:22.134Z,1.90
2023-03-22T05:47:00.107Z,3.00
2023-03-22T05:49:34.169Z,2.73
2023-03-22T05:52:06.063Z,2.53
2023-03-22T05:54:56.847Z,3.07
2023-03-22T05:57:25.075Z,3.10
2023-03-22T05:59:54.694Z,2.83
2023-03-22T06:02:29.373Z,3.17
2023-03-22T06:04:57.819Z,2.60
2023-03-22T06:07:27.087Z,2.13
2023-03-22T06:09:58.028Z,2.03
2023-03-22T06:12:30.223Z,2.43
2023-03-22T06:15:10.937Z,2.10
2023-03-22T06:18:01.310Z,2.10
2023-03-22T06:20:33.161Z,2.40
2023-03-22T06:23:05.241Z,2.37
2023-03-22T06:25:35.299Z,1.90
2023-03-22T06:28:03.900Z,2.27
2023-03-22T06:30:33.934Z,2.27
2023-03-22T06:33:22.544Z,2.40
2023-03-22T06:35:56.479Z,2.30
2023-03-22T06:38:38.412Z,2.50
2023-03-22T06:41:06.941Z,1.97
2023-03-22T06:43:35.325Z,2.27
2023-03-22T06:46:16.825Z,3.00
2023-03-22T06:48:55.525Z,2.00
2023-03-22T06:51:23.977Z,2.47
2023-03-22T06:53:52.313Z,2.27
2023-03-22T06:56:20.535Z,2.00
2023-03-22T06:58:52.857Z,2.47
2023-03-22T07:01:22.661Z,2.50
2023-03-22T07:03:50.907Z,2.17
2023-03-22T07:06:22.821Z,2.60
2023-03-22T07:08:52.301Z,2.30
2023-03-22T07:11:26.935Z,2.90
2023-03-22T07:14:00.407Z,2.27
2023-03-22T07:16:40.993Z,2.13
2023-03-22T07:19:09.774Z,2.57
2023-03-22T07:21:38.887Z,2.27
2023-03-22T07:24:13.868Z,2.93
2023-03-22T07:26:42.938Z,2.10
2023-03-22T07:29:16.734Z,1.90
2023-03-22T07:31:46.629Z,1.97
2023-03-22T07:34:22.964Z,2.03
2023-03-22T07:37:07.978Z,1.80
2023-03-22T07:39:36.315Z,2.30
2023-03-22T07:42:07.024Z,1.63
2023-03-22T07:44:44.261Z,1.87
2023-03-22T07:47:14.019Z,1.90
2023-03-22T07:49:55.338Z,2.20
2023-03-22T07:52:28.202Z,1.90
2023-03-22T07:54:56.674Z,2.60
2023-03-22T07:57:25.233Z,1.63
2023-03-22T07:59:57.713Z,2.10
2023-03-22T08:02:33.184Z,1.60
2023-03-22T08:05:01.649Z,1.80
2023-03-22T08:07:37.796Z,2.53
2023-03-22T08:10:06.468Z,2.10
2023-03-22T08:12:36.501Z,2.27
2023-03-22T08:15:13.144Z,1.90
2023-03-22T08:17:44.713Z,2.27
2023-03-22T08:20:19.714Z,2.10
2023-03-22T08:22:55.660Z,2.33
2023-03-22T08:25:59.145Z,2.17
2023-03-22T08:28:27.963Z,2.57
2023-03-22T08:30:56.449Z,2.40
2023-03-22T08:33:26.946Z,2.10
2023-03-22T08:36:06.537Z,2.53
2023-03-22T08:38:37.915Z,2.47
2023-03-22T08:41:08.114Z,2.13
2023-03-22T08:43:36.330Z,2.40
2023-03-22T08:46:04.781Z,2.23
2023-03-22T08:48:38.049Z,2.30
2023-03-22T08:51:25.254Z,2.30
2023-03-22T08:54:13.008Z,2.20
2023-03-22T08:56:54.026Z,2.20
2023-03-22T08:59:41.715Z,1.90
2023-03-22T09:02:33.107Z,2.40
2023-03-22T09:05:03.583Z,2.20
2023-03-22T09:07:33.264Z,1.63
2023-03-22T09:10:18.996Z,1.83
2023-03-22T09:12:49.947Z,1.70
2023-03-22T09:15:18.599Z,1.80
2023-03-22T09:17:55.752Z,1.60
2023-03-22T09:20:26.022Z,1.80
2023-03-22T09:22:54.586Z,1.43
2023-03-22T09:25:23.874Z,1.60
2023-03-22T09:27:53.500Z,1.37
2023-03-22T09:30:21.782Z,1.10
2023-03-22T09:32:50.421Z,1.40
2023-03-22T09:35:21.476Z,0.90
2023-03-22T09:38:06.049Z,1.43
2023-03-22T09:40:36.164Z,1.20
2023-03-22T09:43:07.461Z,1.60
2023-03-22T09:45:39.868Z,1.30
2023-03-22T09:48:15.782Z,1.60
2023-03-22T09:50:49.344Z,1.10
2023-03-22T09:53:19.798Z,1.53
2023-03-22T09:55:54.241Z,1.40
2023-03-22T09:58:29.794Z,1.23
2023-03-22T10:01:01.592Z,1.50
2023-03-22T10:03:48.644Z,1.00
2023-03-22T10:06:20.559Z,1.10
2023-03-22T10:08:58.297Z,1.10
2023-03-22T10:11:36.282Z,1.40
2023-03-22T10:14:13.272Z,1.23
2023-03-22T10:16:42.121Z,1.43
2023-03-22T10:19:25.681Z,1.30
2023-03-22T10:21:57.449Z,1.47
2023-03-22T10:24:29.706Z,1.23
2023-03-22T10:26:57.888Z,1.03
2023-03-22T10:29:33.419Z,1.27
2023-03-22T10:32:15.303Z,1.30
2023-03-22T10:34:44.023Z,1.23
2023-03-22T10:37:16.491Z,1.20
2023-03-22T10:39:49.809Z,1.50
2023-03-22T10:42:21.791Z,1.23
2023-03-22T10:44:54.694Z,2.33
2023-03-22T10:47:31.785Z,1.13
2023-03-22T10:50:02.840Z,1.43
2023-03-22T10:52:42.178Z,1.33
2023-03-22T10:55:14.629Z,1.30
2023-03-22T10:57:44.098Z,1.67
2023-03-22T11:00:17.928Z,1.60
2023-03-22T11:02:52.293Z,1.30
2023-03-22T11:05:23.860Z,1.10
2023-03-22T11:07:52.612Z,1.43
2023-03-22T11:10:27.476Z,1.30
2023-03-22T11:12:58.115Z,1.13
2023-03-22T11:15:31.653Z,0.90
2023-03-22T11:18:02.688Z,0.90
2023-03-22T11:20:31.502Z,1.20
2023-03-22T11:23:04.887Z,1.13
2023-03-22T11:25:37.664Z,1.00
2023-03-22T11:28:16.492Z,0.90
2023-03-22T11:30:59.834Z,1.47
2023-03-22T11:33:28.209Z,1.10
2023-03-22T11:35:58.053Z,0.90
2023-03-22T11:38:29.607Z,1.10
2023-03-22T11:41:02.492Z,1.20
2023-03-22T11:43:36.855Z,1.53
2023-03-22T11:46:06.772Z,0.90
2023-03-22T11:48:36.793Z,0.93
2023-03-22T11:51:09.620Z,1.00
2023-03-22T11:53:41.545Z,1.20
2023-03-22T11:56:17.887Z,1.10
2023-03-22T11:59:00.054Z,1.57
2023-03-22T12:01:48.348Z,0.80
2023-03-22T12:04:20.801Z,1.40
2023-03-22T12:06:50.551Z,1.40
2023-03-22T12:09:27.116Z,0.90
2023-03-22T12:11:58.583Z,1.00
2023-03-22T12:14:32.188Z,1.43
2023-03-22T12:17:07.131Z,1.00
2023-03-22T12:19:53.110Z,1.20
2023-03-22T12:22:25.770Z,1.30
2023-03-22T12:24:54.096Z,1.10
2023-03-22T12:27:27.917Z,1.03
2023-03-22T12:30:00.926Z,1.00
2023-03-22T12:32:33.640Z,0.80
2023-03-22T12:35:16.573Z,1.17
2023-03-22T12:37:55.377Z,1.23
2023-03-22T12:40:27.164Z,1.63
2023-03-22T12:43:10.518Z,1.30
2023-03-22T12:45:43.662Z,1.20
2023-03-22T12:48:18.918Z,1.20
2023-03-22T12:50:52.256Z,1.00
2023-03-22T12:53:23.318Z,1.80
2023-03-22T12:55:52.561Z,1.30
2023-03-22T12:58:26.815Z,0.93
2023-03-22T13:00:58.779Z,1.50
2023-03-22T13:03:30.111Z,1.20
2023-03-22T13:06:03.062Z,1.30
2023-03-22T13:09:15.788Z,1.60
2023-03-22T13:11:46.146Z,1.00
2023-03-22T13:14:58.143Z,1.53
2023-03-22T13:17:44.764Z,1.40
2023-03-22T13:20:28.636Z,1.50
2023-03-22T13:23:10.561Z,0.93
2023-03-22T13:25:40.256Z,1.30
2023-03-22T13:28:24.535Z,1.37
2023-03-22T13:30:55.657Z,1.20
2023-03-22T13:33:28.577Z,1.40
2023-03-22T13:35:59.081Z,1.30
2023-03-22T13:38:29.667Z,1.53
2023-03-22T13:41:02.878Z,1.23
2023-03-22T13:43:34.589Z,1.30
2023-03-22T13:46:25.010Z,1.70
2023-03-22T13:49:00.429Z,1.30
2023-03-22T13:51:31.954Z,1.17
2023-03-22T13:54:05.790Z,1.27
2023-03-22T13:56:52.861Z,1.10
2023-03-22T13:59:27.196Z,1.43
2023-03-22T14:02:00.282Z,1.70
2023-03-22T14:04:35.006Z,1.43
2023-03-22T14:07:13.248Z,1.33
2023-03-22T14:09:46.467Z,1.93
2023-03-22T14:12:21.313Z,1.30
2023-03-22T14:14:53.701Z,1.80
2023-03-22T14:17:35.116Z,1.70
2023-03-22T14:20:08.383Z,1.30
